»·PEaware :: N9JM L52-L88

N9JM :: L52-L88

FLIGHT INFORMATION

Flight Status: Arrived
Operator: Privately registered:
United States
More flights under this callsign
Pilot: Jared M. (23416)
Aircraft: CESSNA 172 SKYHAWK
(C172)
More flights by this aircraft type
Origin: L52 Oceano Co
United States
Destination: L88 New Cuyama
United States
More flights between these airports :: More routes between these airports
Route: DIRECT
File this flight plan on PilotEdge
Remarks: CAT 01 Rating
Altitude:
(Current/Filed)
7,500ft
Speed:
(Current/Filed)
115kts
Departed: 10-Feb-19 08:55 PM
Arrived: 10-Feb-19 09:31 PM
Distance/Time
Traveled:
48nm/0:36
Distance/Time
To Go:
Arrived

Flight Plot

Page will automatically refresh every two minutes.


Map Options




Map Legend


Flown Route
Filed Route
Departure Airport
Arrival Airport
Navaid (VOR, NDB)
Fix

Horizontal Profiles

Position Reports

Time Latitude Longitude Heading Altitude Ground
Speed
10-Feb-19 20:43 35.103552 -120.624284 214 15ft 0kts
10-Feb-19 20:44 35.103552 -120.624284 214 15ft 0kts
10-Feb-19 20:45 35.103552 -120.624284 214 15ft 0kts
10-Feb-19 20:46 35.103552 -120.624284 214 15ft 0kts
10-Feb-19 20:47 35.103552 -120.624284 214 15ft 0kts
10-Feb-19 20:48 35.103552 -120.624284 214 15ft 0kts
10-Feb-19 20:49 35.103552 -120.624284 214 15ft 0kts
10-Feb-19 20:50 35.103552 -120.624284 214 15ft 0kts
10-Feb-19 20:51 35.103552 -120.624284 214 15ft 0kts
10-Feb-19 20:52 35.103551 -120.624285 214 15ft 0kts
10-Feb-19 20:53 35.103481 -120.625139 218 14ft 0kts
10-Feb-19 20:54 35.096391 -120.612923 122 429ft 73kts
10-Feb-19 20:55 35.091660 -120.590845 85 1317ft 62kts
10-Feb-19 20:56 35.090933 -120.570258 105 2003ft 64kts
10-Feb-19 20:57 35.087647 -120.549914 95 2697ft 64kts
10-Feb-19 20:58 35.086133 -120.527406 92 3486ft 68kts
10-Feb-19 20:59 35.083229 -120.504197 100 4250ft 72kts
10-Feb-19 21:00 35.079211 -120.479946 101 5011ft 70kts
10-Feb-19 21:01 35.078802 -120.454712 95 5674ft 78kts
10-Feb-19 21:02 35.075168 -120.428260 95 6385ft 80kts
10-Feb-19 21:03 35.072010 -120.402156 100 7077ft 78kts
10-Feb-19 21:04 35.067680 -120.373183 99 7529ft 101kts
10-Feb-19 21:05 35.063027 -120.335705 97 7672ft 115kts
10-Feb-19 21:06 35.056950 -120.297401 104 7694ft 114kts
10-Feb-19 21:07 35.049392 -120.260219 101 7577ft 111kts
10-Feb-19 21:08 35.043761 -120.222779 101 7481ft 108kts
10-Feb-19 21:09 35.038355 -120.187817 100 7547ft 100kts
10-Feb-19 21:10 35.033416 -120.154427 100 7595ft 102kts
10-Feb-19 21:11 35.028118 -120.118601 99 7511ft 107kts
10-Feb-19 21:12 35.022531 -120.083220 99 7478ft 108kts
10-Feb-19 21:13 35.016992 -120.047989 100 7519ft 102kts
10-Feb-19 21:14 35.011358 -120.013775 100 7532ft 104kts
10-Feb-19 21:15 35.006130 -119.979072 101 7521ft 106kts
10-Feb-19 21:16 35.000996 -119.942790 97 7422ft 110kts
10-Feb-19 21:17 34.995475 -119.906596 101 7398ft 106kts
10-Feb-19 21:18 34.989574 -119.870832 100 7314ft 111kts
10-Feb-19 21:19 34.983880 -119.833750 99 7129ft 118kts
10-Feb-19 21:20 34.975299 -119.792068 107 6465ft 133kts
10-Feb-19 21:21 34.962675 -119.747770 110 5423ft 142kts
10-Feb-19 21:22 34.946808 -119.701425 115 3822ft 153kts
10-Feb-19 21:23 34.929105 -119.660868 140 3360ft 114kts
10-Feb-19 21:24 34.901815 -119.673308 250 3264ft 108kts
10-Feb-19 21:25 34.914038 -119.706155 303 3265ft 103kts
10-Feb-19 21:26 34.932036 -119.732932 314 3159ft 99kts
10-Feb-19 21:27 34.954779 -119.731051 35 2989ft 89kts
10-Feb-19 21:28 34.949968 -119.708925 122 2626ft 70kts
10-Feb-19 21:29 34.941835 -119.690270 114 2163ft 48kts
10-Feb-19 21:30 34.941767 -119.689988 297 2159ft 27kts
10-Feb-19 21:31 34.943452 -119.691076 163 2154ft 4kts
10-Feb-19 21:32 34.943393 -119.691054 161 2154ft 0kts
10-Feb-19 21:33 34.943393 -119.691054 161 2154ft 0kts
10-Feb-19 21:34 34.943393 -119.691054 161 2154ft 0kts
10-Feb-19 21:35 34.943393 -119.691054 161 2154ft 0kts
10-Feb-19 21:36 34.943393 -119.691054 161 2154ft 0kts
10-Feb-19 21:37 34.943393 -119.691054 161 2154ft 0kts
10-Feb-19 21:38 34.943393 -119.691054 161 2154ft 0kts
10-Feb-19 21:39 34.943393 -119.691054 161 2154ft 0kts
10-Feb-19 21:40 34.943393 -119.691054 161 2154ft 0kts
10-Feb-19 21:41 34.943393 -119.691054 161 2154ft 0kts
10-Feb-19 21:42 34.943196 -119.691035 179 2154ft 0kts
10-Feb-19 21:43 34.942172 -119.691033 117 2156ft 0kts
10-Feb-19 21:44 34.934908 -119.673813 117 2594ft 85kts

Navigation Log

Ident Type
Flight plan parsing failed, navigation log unavailable